sensor_id;sensor_type;location;lat;lon;timestamp;P1;durP1;ratioP1;P2;durP2;ratioP2
73276;SDS011;61501;43.316;5.372;2023-03-01T00:01:17;14.30;;;13.00;;
73276;SDS011;61501;43.316;5.372;2023-03-01T00:03:49;14.73;;;13.52;;
73276;SDS011;61501;43.316;5.372;2023-03-01T00:06:18;14.48;;;13.27;;
73276;SDS011;61501;43.316;5.372;2023-03-01T00:08:44;15.02;;;13.82;;
73276;SDS011;61501;43.316;5.372;2023-03-01T00:11:12;14.18;;;12.98;;
73276;SDS011;61501;43.316;5.372;2023-03-01T00:13:40;14.38;;;13.18;;
73276;SDS011;61501;43.316;5.372;2023-03-01T00:16:07;14.25;;;12.95;;
73276;SDS011;61501;43.316;5.372;2023-03-01T00:18:35;13.95;;;12.85;;
73276;SDS011;61501;43.316;5.372;2023-03-01T00:21:01;14.90;;;13.60;;
73276;SDS011;61501;43.316;5.372;2023-03-01T00:23:30;14.75;;;13.52;;
73276;SDS011;61501;43.316;5.372;2023-03-01T00:25:57;14.75;;;13.43;;
73276;SDS011;61501;43.316;5.372;2023-03-01T00:28:22;15.10;;;13.80;;
73276;SDS011;61501;43.316;5.372;2023-03-01T00:30:48;14.88;;;13.38;;
73276;SDS011;61501;43.316;5.372;2023-03-01T00:33:14;14.75;;;13.55;;
73276;SDS011;61501;43.316;5.372;2023-03-01T00:35:39;15.20;;;13.93;;
73276;SDS011;61501;43.316;5.372;2023-03-01T00:38:05;14.48;;;13.38;;
73276;SDS011;61501;43.316;5.372;2023-03-01T00:40:32;14.93;;;13.73;;
73276;SDS011;61501;43.316;5.372;2023-03-01T00:42:59;15.13;;;13.80;;
73276;SDS011;61501;43.316;5.372;2023-03-01T00:45:25;17.65;;;15.98;;
73276;SDS011;61501;43.316;5.372;2023-03-01T00:47:51;16.23;;;14.82;;
73276;SDS011;61501;43.316;5.372;2023-03-01T00:50:18;17.67;;;15.98;;
73276;SDS011;61501;43.316;5.372;2023-03-01T00:52:43;16.40;;;14.88;;
73276;SDS011;61501;43.316;5.372;2023-03-01T00:55:10;16.85;;;15.25;;
73276;SDS011;61501;43.316;5.372;2023-03-01T00:57:36;17.20;;;15.80;;
73276;SDS011;61501;43.316;5.372;2023-03-01T01:00:03;16.98;;;15.48;;
73276;SDS011;61501;43.316;5.372;2023-03-01T01:02:31;17.13;;;15.63;;
73276;SDS011;61501;43.316;5.372;2023-03-01T01:04:58;19.73;;;17.73;;
73276;SDS011;61501;43.316;5.372;2023-03-01T01:07:24;18.13;;;16.38;;
73276;SDS011;61501;43.316;5.372;2023-03-01T01:09:49;17.00;;;15.57;;
73276;SDS011;61501;43.316;5.372;2023-03-01T01:12:15;18.10;;;16.25;;
73276;SDS011;61501;43.316;5.372;2023-03-01T01:14:41;17.45;;;15.95;;
73276;SDS011;61501;43.316;5.372;2023-03-01T01:17:06;18.95;;;17.13;;
73276;SDS011;61501;43.316;5.372;2023-03-01T01:19:32;17.80;;;16.30;;
73276;SDS011;61501;43.316;5.372;2023-03-01T01:21:58;17.75;;;16.13;;
73276;SDS011;61501;43.316;5.372;2023-03-01T01:24:25;17.65;;;16.15;;
73276;SDS011;61501;43.316;5.372;2023-03-01T01:26:50;18.33;;;16.63;;
73276;SDS011;61501;43.316;5.372;2023-03-01T01:29:16;18.38;;;16.67;;
73276;SDS011;61501;43.316;5.372;2023-03-01T01:31:42;17.45;;;15.88;;
73276;SDS011;61501;43.316;5.372;2023-03-01T01:34:11;18.08;;;16.10;;
73276;SDS011;61501;43.316;5.372;2023-03-01T01:36:40;18.52;;;16.92;;
73276;SDS011;61501;43.316;5.372;2023-03-01T01:39:06;17.27;;;15.77;;
73276;SDS011;61501;43.316;5.372;2023-03-01T01:41:32;18.05;;;16.45;;
73276;SDS011;61501;43.316;5.372;2023-03-01T01:49:25;18.63;;;16.73;;
73276;SDS011;61501;43.316;5.372;2023-03-01T01:55:25;17.15;;;15.63;;
73276;SDS011;61501;43.316;5.372;2023-03-01T01:57:48;17.15;;;15.55;;
73276;SDS011;61501;43.316;5.372;2023-03-01T02:00:17;17.73;;;16.13;;
73276;SDS011;61501;43.316;5.372;2023-03-01T02:02:49;18.77;;;16.83;;
73276;SDS011;61501;43.316;5.372;2023-03-01T02:08:16;18.05;;;16.30;;
73276;SDS011;61501;43.316;5.372;2023-03-01T02:10:45;20.85;;;18.55;;
73276;SDS011;61501;43.316;5.372;2023-03-01T02:13:11;20.00;;;17.90;;
73276;SDS011;61501;43.316;5.372;2023-03-01T02:15:37;18.90;;;17.00;;
73276;SDS011;61501;43.316;5.372;2023-03-01T02:18:05;21.38;;;18.27;;
73276;SDS011;61501;43.316;5.372;2023-03-01T02:20:40;19.25;;;17.25;;
73276;SDS011;61501;43.316;5.372;2023-03-01T02:23:10;18.30;;;16.40;;
73276;SDS011;61501;43.316;5.372;2023-03-01T02:25:41;18.05;;;16.27;;
73276;SDS011;61501;43.316;5.372;2023-03-01T02:30:41;18.30;;;16.40;;
73276;SDS011;61501;43.316;5.372;2023-03-01T02:33:26;19.70;;;17.52;;
73276;SDS011;61501;43.316;5.372;2023-03-01T02:35:53;20.75;;;17.98;;
73276;SDS011;61501;43.316;5.372;2023-03-01T02:38:20;21.75;;;16.67;;
73276;SDS011;61501;43.316;5.372;2023-03-01T02:40:50;21.75;;;18.00;;
73276;SDS011;61501;43.316;5.372;2023-03-01T02:43:17;26.45;;;19.23;;
73276;SDS011;61501;43.316;5.372;2023-03-01T02:45:49;21.90;;;19.42;;
73276;SDS011;61501;43.316;5.372;2023-03-01T02:48:16;23.42;;;18.33;;
73276;SDS011;61501;43.316;5.372;2023-03-01T02:53:45;26.88;;;19.38;;
73276;SDS011;61501;43.316;5.372;2023-03-01T02:56:30;26.63;;;19.75;;
73276;SDS011;61501;43.316;5.372;2023-03-01T02:58:56;25.65;;;19.30;;
73276;SDS011;61501;43.316;5.372;2023-03-01T03:01:25;22.85;;;18.05;;
73276;SDS011;61501;43.316;5.372;2023-03-01T03:04:01;23.75;;;19.00;;
73276;SDS011;61501;43.316;5.372;2023-03-01T03:06:31;23.00;;;19.13;;
73276;SDS011;61501;43.316;5.372;2023-03-01T03:08:57;23.10;;;17.40;;
73276;SDS011;61501;43.316;5.372;2023-03-01T03:11:23;23.67;;;18.00;;
73276;SDS011;61501;43.316;5.372;2023-03-01T03:13:49;21.15;;;17.88;;
73276;SDS011;61501;43.316;5.372;2023-03-01T03:16:16;20.00;;;17.83;;
73276;SDS011;61501;43.316;5.372;2023-03-01T03:18:41;23.58;;;17.25;;
73276;SDS011;61501;43.316;5.372;2023-03-01T03:21:11;19.65;;;17.65;;
73276;SDS011;61501;43.316;5.372;2023-03-01T03:23:37;18.60;;;16.80;;
73276;SDS011;61501;43.316;5.372;2023-03-01T03:26:04;18.10;;;16.23;;
73276;SDS011;61501;43.316;5.372;2023-03-01T03:28:31;18.00;;;16.30;;
73276;SDS011;61501;43.316;5.372;2023-03-01T03:30:58;18.65;;;16.75;;
73276;SDS011;61501;43.316;5.372;2023-03-01T03:33:28;19.60;;;17.50;;
73276;SDS011;61501;43.316;5.372;2023-03-01T03:35:54;18.88;;;17.08;;
73276;SDS011;61501;43.316;5.372;2023-03-01T03:38:20;18.65;;;16.85;;
73276;SDS011;61501;43.316;5.372;2023-03-01T03:40:47;17.88;;;16.10;;
73276;SDS011;61501;43.316;5.372;2023-03-01T03:43:33;18.10;;;16.42;;
73276;SDS011;61501;43.316;5.372;2023-03-01T03:46:01;17.73;;;16.13;;
73276;SDS011;61501;43.316;5.372;2023-03-01T03:48:30;17.25;;;15.82;;
73276;SDS011;61501;43.316;5.372;2023-03-01T03:50:58;17.95;;;16.27;;
73276;SDS011;61501;43.316;5.372;2023-03-01T03:53:24;17.00;;;15.43;;
73276;SDS011;61501;43.316;5.372;2023-03-01T03:55:52;17.67;;;16.10;;
73276;SDS011;61501;43.316;5.372;2023-03-01T03:58:19;18.33;;;16.70;;
73276;SDS011;61501;43.316;5.372;2023-03-01T04:00:47;18.48;;;16.77;;
73276;SDS011;61501;43.316;5.372;2023-03-01T04:03:20;18.42;;;16.88;;
73276;SDS011;61501;43.316;5.372;2023-03-01T04:05:48;19.02;;;17.30;;
73276;SDS011;61501;43.316;5.372;2023-03-01T04:08:21;18.23;;;16.70;;
73276;SDS011;61501;43.316;5.372;2023-03-01T04:10:49;22.10;;;18.67;;
73276;SDS011;61501;43.316;5.372;2023-03-01T04:13:18;19.08;;;17.25;;
73276;SDS011;61501;43.316;5.372;2023-03-01T04:15:46;17.10;;;15.55;;
73276;SDS011;61501;43.316;5.372;2023-03-01T04:18:16;18.30;;;16.52;;
73276;SDS011;61501;43.316;5.372;2023-03-01T04:20:42;18.67;;;16.98;;
73276;SDS011;61501;43.316;5.372;2023-03-01T04:23:11;18.23;;;16.63;;
73276;SDS011;61501;43.316;5.372;2023-03-01T04:25:47;17.95;;;16.25;;
73276;SDS011;61501;43.316;5.372;2023-03-01T04:28:24;18.85;;;16.67;;
73276;SDS011;61501;43.316;5.372;2023-03-01T04:30:52;18.27;;;16.50;;
73276;SDS011;61501;43.316;5.372;2023-03-01T04:33:19;18.42;;;16.77;;
73276;SDS011;61501;43.316;5.372;2023-03-01T04:35:45;19.65;;;17.67;;
73276;SDS011;61501;43.316;5.372;2023-03-01T04:38:11;19.50;;;17.27;;
73276;SDS011;61501;43.316;5.372;2023-03-01T04:40:37;18.52;;;16.80;;
73276;SDS011;61501;43.316;5.372;2023-03-01T04:43:03;18.02;;;16.52;;
73276;SDS011;61501;43.316;5.372;2023-03-01T04:45:29;18.13;;;16.52;;
73276;SDS011;61501;43.316;5.372;2023-03-01T04:47:57;16.85;;;15.40;;
73276;SDS011;61501;43.316;5.372;2023-03-01T04:50:23;17.45;;;15.95;;
73276;SDS011;61501;43.316;5.372;2023-03-01T04:52:50;17.33;;;15.60;;
73276;SDS011;61501;43.316;5.372;2023-03-01T04:55:16;17.25;;;15.63;;
73276;SDS011;61501;43.316;5.372;2023-03-01T04:57:42;18.00;;;16.42;;
73276;SDS011;61501;43.316;5.372;2023-03-01T05:00:09;18.30;;;16.55;;
73276;SDS011;61501;43.316;5.372;2023-03-01T05:02:51;17.90;;;16.40;;
73276;SDS011;61501;43.316;5.372;2023-03-01T05:05:22;18.23;;;16.60;;
73276;SDS011;61501;43.316;5.372;2023-03-01T05:07:54;16.67;;;15.05;;
73276;SDS011;61501;43.316;5.372;2023-03-01T05:10:21;17.58;;;15.98;;
73276;SDS011;61501;43.316;5.372;2023-03-01T05:12:47;21.75;;;16.27;;
73276;SDS011;61501;43.316;5.372;2023-03-01T05:15:13;17.95;;;16.30;;
73276;SDS011;61501;43.316;5.372;2023-03-01T05:17:39;17.55;;;15.73;;
73276;SDS011;61501;43.316;5.372;2023-03-01T05:20:05;18.08;;;16.45;;
73276;SDS011;61501;43.316;5.372;2023-03-01T05:22:35;18.73;;;17.02;;
73276;SDS011;61501;43.316;5.372;2023-03-01T05:25:00;18.42;;;16.63;;
73276;SDS011;61501;43.316;5.372;2023-03-01T05:27:27;18.17;;;16.27;;
73276;SDS011;61501;43.316;5.372;2023-03-01T05:29:56;19.70;;;17.70;;
73276;SDS011;61501;43.316;5.372;2023-03-01T05:32:21;19.40;;;17.45;;
73276;SDS011;61501;43.316;5.372;2023-03-01T05:34:47;19.85;;;17.95;;
73276;SDS011;61501;43.316;5.372;2023-03-01T05:37:13;18.83;;;17.20;;
73276;SDS011;61501;43.316;5.372;2023-03-01T05:39:39;18.63;;;16.83;;
73276;SDS011;61501;43.316;5.372;2023-03-01T05:42:05;18.10;;;16.30;;
73276;SDS011;61501;43.316;5.372;2023-03-01T05:44:30;18.15;;;16.45;;
73276;SDS011;61501;43.316;5.372;2023-03-01T05:46:56;19.15;;;16.65;;
73276;SDS011;61501;43.316;5.372;2023-03-01T05:49:22;17.90;;;16.25;;
73276;SDS011;61501;43.316;5.372;2023-03-01T05:51:49;19.15;;;17.42;;
73276;SDS011;61501;43.316;5.372;2023-03-01T05:54:16;17.42;;;15.88;;
73276;SDS011;61501;43.316;5.372;2023-03-01T05:56:42;18.42;;;16.73;;
73276;SDS011;61501;43.316;5.372;2023-03-01T05:59:08;17.88;;;16.13;;
73276;SDS011;61501;43.316;5.372;2023-03-01T06:01:34;18.73;;;16.83;;
73276;SDS011;61501;43.316;5.372;2023-03-01T06:04:01;18.33;;;16.50;;
73276;SDS011;61501;43.316;5.372;2023-03-01T06:06:27;19.88;;;17.70;;
73276;SDS011;61501;43.316;5.372;2023-03-01T06:08:53;18.65;;;16.90;;
73276;SDS011;61501;43.316;5.372;2023-03-01T06:11:19;19.30;;;17.30;;
73276;SDS011;61501;43.316;5.372;2023-03-01T06:13:46;19.50;;;17.55;;
73276;SDS011;61501;43.316;5.372;2023-03-01T06:16:12;20.25;;;18.40;;
73276;SDS011;61501;43.316;5.372;2023-03-01T06:18:39;19.25;;;17.60;;
73276;SDS011;61501;43.316;5.372;2023-03-01T06:21:06;19.15;;;17.38;;
73276;SDS011;61501;43.316;5.372;2023-03-01T06:23:32;18.52;;;16.70;;
73276;SDS011;61501;43.316;5.372;2023-03-01T06:25:58;19.58;;;17.63;;
73276;SDS011;61501;43.316;5.372;2023-03-01T06:28:24;17.98;;;16.17;;
73276;SDS011;61501;43.316;5.372;2023-03-01T06:30:50;20.00;;;17.95;;
73276;SDS011;61501;43.316;5.372;2023-03-01T06:33:17;20.10;;;18.20;;
73276;SDS011;61501;43.316;5.372;2023-03-01T06:35:45;23.10;;;16.70;;
73276;SDS011;61501;43.316;5.372;2023-03-01T06:38:11;20.05;;;17.92;;
73276;SDS011;61501;43.316;5.372;2023-03-01T06:40:39;21.60;;;17.50;;
73276;SDS011;61501;43.316;5.372;2023-03-01T06:43:05;25.90;;;17.98;;
73276;SDS011;61501;43.316;5.372;2023-03-01T06:45:32;19.95;;;17.60;;
73276;SDS011;61501;43.316;5.372;2023-03-01T06:48:05;19.88;;;17.90;;
73276;SDS011;61501;43.316;5.372;2023-03-01T06:50:32;20.17;;;17.48;;
73276;SDS011;61501;43.316;5.372;2023-03-01T06:52:59;18.98;;;17.17;;
73276;SDS011;61501;43.316;5.372;2023-03-01T06:55:25;21.08;;;18.50;;
73276;SDS011;61501;43.316;5.372;2023-03-01T06:57:54;20.20;;;18.00;;
73276;SDS011;61501;43.316;5.372;2023-03-01T07:00:21;19.33;;;17.38;;
73276;SDS011;61501;43.316;5.372;2023-03-01T07:02:47;25.08;;;17.55;;
73276;SDS011;61501;43.316;5.372;2023-03-01T07:05:13;21.98;;;18.38;;
73276;SDS011;61501;43.316;5.372;2023-03-01T07:07:38;20.23;;;17.95;;
73276;SDS011;61501;43.316;5.372;2023-03-01T07:10:04;18.98;;;16.52;;
73276;SDS011;61501;43.316;5.372;2023-03-01T07:12:31;21.20;;;17.83;;
73276;SDS011;61501;43.316;5.372;2023-03-01T07:14:59;21.90;;;18.13;;
73276;SDS011;61501;43.316;5.372;2023-03-01T07:17:25;20.35;;;17.92;;
73276;SDS011;61501;43.316;5.372;2023-03-01T07:19:51;21.50;;;19.30;;
73276;SDS011;61501;43.316;5.372;2023-03-01T07:22:16;21.40;;;18.85;;
73276;SDS011;61501;43.316;5.372;2023-03-01T07:24:42;20.52;;;18.48;;
73276;SDS011;61501;43.316;5.372;2023-03-01T07:27:08;22.17;;;19.92;;
73276;SDS011;61501;43.316;5.372;2023-03-01T07:29:34;25.30;;;19.85;;
73276;SDS011;61501;43.316;5.372;2023-03-01T07:32:01;21.75;;;19.52;;
73276;SDS011;61501;43.316;5.372;2023-03-01T07:34:28;22.08;;;19.42;;
73276;SDS011;61501;43.316;5.372;2023-03-01T07:36:54;21.33;;;19.10;;
73276;SDS011;61501;43.316;5.372;2023-03-01T07:39:20;27.95;;;20.95;;
73276;SDS011;61501;43.316;5.372;2023-03-01T07:41:47;22.75;;;19.60;;
73276;SDS011;61501;43.316;5.372;2023-03-01T07:44:13;21.13;;;18.92;;
73276;SDS011;61501;43.316;5.372;2023-03-01T07:46:41;20.10;;;17.98;;
73276;SDS011;61501;43.316;5.372;2023-03-01T07:49:07;21.88;;;19.83;;
73276;SDS011;61501;43.316;5.372;2023-03-01T07:51:32;21.02;;;18.88;;
73276;SDS011;61501;43.316;5.372;2023-03-01T07:53:58;21.05;;;18.95;;
73276;SDS011;61501;43.316;5.372;2023-03-01T07:56:24;20.85;;;18.63;;
73276;SDS011;61501;43.316;5.372;2023-03-01T07:58:49;21.98;;;19.70;;
73276;SDS011;61501;43.316;5.372;2023-03-01T08:01:16;21.48;;;19.27;;
73276;SDS011;61501;43.316;5.372;2023-03-01T08:03:44;20.85;;;18.60;;
73276;SDS011;61501;43.316;5.372;2023-03-01T08:06:10;23.27;;;19.42;;
73276;SDS011;61501;43.316;5.372;2023-03-01T08:08:37;21.40;;;19.27;;
73276;SDS011;61501;43.316;5.372;2023-03-01T08:11:03;21.52;;;19.40;;
73276;SDS011;61501;43.316;5.372;2023-03-01T08:13:30;19.42;;;17.85;;
73276;SDS011;61501;43.316;5.372;2023-03-01T08:16:05;19.45;;;17.75;;
73276;SDS011;61501;43.316;5.372;2023-03-01T08:18:32;20.63;;;18.73;;
73276;SDS011;61501;43.316;5.372;2023-03-01T08:21:02;20.85;;;19.05;;
73276;SDS011;61501;43.316;5.372;2023-03-01T08:23:32;21.38;;;19.35;;
73276;SDS011;61501;43.316;5.372;2023-03-01T08:26:09;23.20;;;20.45;;
73276;SDS011;61501;43.316;5.372;2023-03-01T08:28:37;22.80;;;20.48;;
73276;SDS011;61501;43.316;5.372;2023-03-01T08:31:12;21.33;;;19.30;;
73276;SDS011;61501;43.316;5.372;2023-03-01T08:33:57;21.48;;;19.58;;
73276;SDS011;61501;43.316;5.372;2023-03-01T08:36:26;21.83;;;19.90;;
73276;SDS011;61501;43.316;5.372;2023-03-01T08:38:54;22.23;;;19.95;;
73276;SDS011;61501;43.316;5.372;2023-03-01T08:41:20;22.40;;;20.30;;
73276;SDS011;61501;43.316;5.372;2023-03-01T08:43:46;21.20;;;19.30;;
73276;SDS011;61501;43.316;5.372;2023-03-01T08:46:12;21.98;;;19.33;;
73276;SDS011;61501;43.316;5.372;2023-03-01T08:48:38;22.42;;;20.45;;
73276;SDS011;61501;43.316;5.372;2023-03-01T08:51:11;22.67;;;20.58;;
73276;SDS011;61501;43.316;5.372;2023-03-01T08:53:41;23.27;;;21.00;;
73276;SDS011;61501;43.316;5.372;2023-03-01T08:56:08;21.25;;;19.25;;
73276;SDS011;61501;43.316;5.372;2023-03-01T08:58:34;20.92;;;18.85;;
73276;SDS011;61501;43.316;5.372;2023-03-01T09:01:01;23.05;;;20.80;;
73276;SDS011;61501;43.316;5.372;2023-03-01T09:03:32;20.95;;;19.00;;
73276;SDS011;61501;43.316;5.372;2023-03-01T09:06:01;23.40;;;21.13;;
73276;SDS011;61501;43.316;5.372;2023-03-01T09:08:28;22.67;;;20.35;;
73276;SDS011;61501;43.316;5.372;2023-03-01T09:10:54;23.05;;;20.67;;
73276;SDS011;61501;43.316;5.372;2023-03-01T09:13:20;24.85;;;21.45;;
73276;SDS011;61501;43.316;5.372;2023-03-01T09:15:45;24.25;;;21.70;;
73276;SDS011;61501;43.316;5.372;2023-03-01T09:18:11;23.77;;;21.45;;
73276;SDS011;61501;43.316;5.372;2023-03-01T09:20:37;24.48;;;21.98;;
73276;SDS011;61501;43.316;5.372;2023-03-01T09:23:02;25.35;;;22.52;;
73276;SDS011;61501;43.316;5.372;2023-03-01T09:25:28;26.40;;;23.20;;
73276;SDS011;61501;43.316;5.372;2023-03-01T09:27:54;27.30;;;22.80;;
73276;SDS011;61501;43.316;5.372;2023-03-01T09:30:20;26.33;;;22.95;;
73276;SDS011;61501;43.316;5.372;2023-03-01T09:32:47;27.63;;;21.83;;
73276;SDS011;61501;43.316;5.372;2023-03-01T09:35:13;30.40;;;22.67;;
73276;SDS011;61501;43.316;5.372;2023-03-01T09:37:38;23.90;;;20.35;;
73276;SDS011;61501;43.316;5.372;2023-03-01T09:40:14;25.20;;;21.50;;
73276;SDS011;61501;43.316;5.372;2023-03-01T09:42:46;26.65;;;21.58;;
73276;SDS011;61501;43.316;5.372;2023-03-01T09:45:25;24.92;;;22.17;;
73276;SDS011;61501;43.316;5.372;2023-03-01T09:48:03;26.60;;;21.65;;
73276;SDS011;61501;43.316;5.372;2023-03-01T09:50:35;24.52;;;20.98;;
73276;SDS011;61501;43.316;5.372;2023-03-01T09:53:13;25.98;;;21.55;;
73276;SDS011;61501;43.316;5.372;2023-03-01T09:56:05;23.60;;;21.25;;
73276;SDS011;61501;43.316;5.372;2023-03-01T10:01:33;24.52;;;21.88;;
73276;SDS011;61501;43.316;5.372;2023-03-01T10:06:34;26.75;;;22.95;;
73276;SDS011;61501;43.316;5.372;2023-03-01T10:09:02;24.95;;;22.27;;
73276;SDS011;61501;43.316;5.372;2023-03-01T10:11:37;27.23;;;22.60;;
73276;SDS011;61501;43.316;5.372;2023-03-01T10:16:57;28.08;;;22.00;;
73276;SDS011;61501;43.316;5.372;2023-03-01T10:19:44;29.77;;;23.42;;
73276;SDS011;61501;43.316;5.372;2023-03-01T10:24:59;26.08;;;23.00;;
73276;SDS011;61501;43.316;5.372;2023-03-01T10:27:51;27.90;;;22.92;;
73276;SDS011;61501;43.316;5.372;2023-03-01T10:33:04;23.92;;;21.60;;
73276;SDS011;61501;43.316;5.372;2023-03-01T10:35:46;21.83;;;19.63;;
73276;SDS011;61501;43.316;5.372;2023-03-01T10:38:13;20.83;;;18.65;;
73276;SDS011;61501;43.316;5.372;2023-03-01T10:40:51;21.70;;;18.55;;
73276;SDS011;61501;43.316;5.372;2023-03-01T10:43:21;21.42;;;17.73;;
73276;SDS011;61501;43.316;5.372;2023-03-01T10:45:48;26.10;;;18.40;;
73276;SDS011;61501;43.316;5.372;2023-03-01T10:48:18;19.55;;;17.55;;
73276;SDS011;61501;43.316;5.372;2023-03-01T10:53:25;22.02;;;18.02;;
73276;SDS011;61501;43.316;5.372;2023-03-01T10:56:12;18.70;;;16.77;;
73276;SDS011;61501;43.316;5.372;2023-03-01T10:59:02;19.15;;;17.45;;
73276;SDS011;61501;43.316;5.372;2023-03-01T11:01:29;19.90;;;17.90;;
73276;SDS011;61501;43.316;5.372;2023-03-01T11:04:09;22.02;;;20.02;;
73276;SDS011;61501;43.316;5.372;2023-03-01T11:06:41;25.30;;;22.90;;
73276;SDS011;61501;43.316;5.372;2023-03-01T11:09:15;23.20;;;21.00;;
73276;SDS011;61501;43.316;5.372;2023-03-01T11:11:46;22.80;;;20.77;;
73276;SDS011;61501;43.316;5.372;2023-03-01T11:14:21;23.52;;;21.27;;
73276;SDS011;61501;43.316;5.372;2023-03-01T11:16:49;23.42;;;21.23;;
73276;SDS011;61501;43.316;5.372;2023-03-01T11:19:27;22.48;;;20.40;;
73276;SDS011;61501;43.316;5.372;2023-03-01T11:27:40;24.98;;;22.58;;
73276;SDS011;61501;43.316;5.372;2023-03-01T11:33:20;23.88;;;21.67;;
73276;SDS011;61501;43.316;5.372;2023-03-01T11:39:04;26.65;;;24.05;;
73276;SDS011;61501;43.316;5.372;2023-03-01T11:44:30;24.50;;;22.27;;
73276;SDS011;61501;43.316;5.372;2023-03-01T12:00:46;23.30;;;20.95;;
73276;SDS011;61501;43.316;5.372;2023-03-01T12:06:31;23.95;;;21.90;;
73276;SDS011;61501;43.316;5.372;2023-03-01T12:25:51;23.27;;;21.27;;
73276;SDS011;61501;43.316;5.372;2023-03-01T12:31:11;23.58;;;21.38;;
73276;SDS011;61501;43.316;5.372;2023-03-01T12:34:08;22.75;;;20.85;;
73276;SDS011;61501;43.316;5.372;2023-03-01T12:45:44;24.90;;;22.60;;
73276;SDS011;61501;43.316;5.372;2023-03-01T12:51:26;23.25;;;21.00;;
73276;SDS011;61501;43.316;5.372;2023-03-01T12:53:56;23.48;;;21.05;;
73276;SDS011;61501;43.316;5.372;2023-03-01T12:56:28;22.88;;;20.88;;
73276;SDS011;61501;43.316;5.372;2023-03-01T13:06:44;22.13;;;20.23;;
73276;SDS011;61501;43.316;5.372;2023-03-01T13:17:49;23.90;;;21.80;;
73276;SDS011;61501;43.316;5.372;2023-03-01T13:26:04;23.67;;;21.58;;
73276;SDS011;61501;43.316;5.372;2023-03-01T13:28:44;22.67;;;20.77;;
73276;SDS011;61501;43.316;5.372;2023-03-01T13:46:47;23.38;;;21.17;;
73276;SDS011;61501;43.316;5.372;2023-03-01T13:49:16;23.23;;;21.23;;
73276;SDS011;61501;43.316;5.372;2023-03-01T13:51:47;23.80;;;21.65;;
73276;SDS011;61501;43.316;5.372;2023-03-01T13:54:15;21.90;;;20.00;;
73276;SDS011;61501;43.316;5.372;2023-03-01T13:56:53;23.55;;;21.33;;
73276;SDS011;61501;43.316;5.372;2023-03-01T13:59:20;22.88;;;20.52;;
73276;SDS011;61501;43.316;5.372;2023-03-01T14:01:54;22.73;;;20.48;;
73276;SDS011;61501;43.316;5.372;2023-03-01T14:04:25;22.88;;;20.73;;
73276;SDS011;61501;43.316;5.372;2023-03-01T14:09:56;25.10;;;22.75;;
73276;SDS011;61501;43.316;5.372;2023-03-01T14:15:18;24.45;;;22.05;;
73276;SDS011;61501;43.316;5.372;2023-03-01T14:17:52;23.70;;;21.60;;
73276;SDS011;61501;43.316;5.372;2023-03-01T14:20:37;22.95;;;20.88;;
73276;SDS011;61501;43.316;5.372;2023-03-01T14:23:10;23.50;;;21.15;;
73276;SDS011;61501;43.316;5.372;2023-03-01T14:25:48;22.60;;;20.38;;
73276;SDS011;61501;43.316;5.372;2023-03-01T14:30:46;23.55;;;21.23;;
73276;SDS011;61501;43.316;5.372;2023-03-01T14:36:00;23.02;;;20.88;;
73276;SDS011;61501;43.316;5.372;2023-03-01T14:38:37;23.52;;;21.45;;
73276;SDS011;61501;43.316;5.372;2023-03-01T14:41:09;22.75;;;20.83;;
73276;SDS011;61501;43.316;5.372;2023-03-01T14:43:41;22.95;;;21.02;;
73276;SDS011;61501;43.316;5.372;2023-03-01T14:46:21;23.00;;;21.02;;
73276;SDS011;61501;43.316;5.372;2023-03-01T14:49:05;22.48;;;20.48;;
73276;SDS011;61501;43.316;5.372;2023-03-01T14:51:59;22.02;;;20.08;;
73276;SDS011;61501;43.316;5.372;2023-03-01T14:57:12;23.30;;;21.10;;
73276;SDS011;61501;43.316;5.372;2023-03-01T14:59:40;22.30;;;20.30;;
73276;SDS011;61501;43.316;5.372;2023-03-01T15:02:15;22.90;;;20.88;;
73276;SDS011;61501;43.316;5.372;2023-03-01T15:04:48;22.48;;;20.33;;
73276;SDS011;61501;43.316;5.372;2023-03-01T15:07:16;24.40;;;21.90;;
73276;SDS011;61501;43.316;5.372;2023-03-01T15:09:42;21.85;;;19.92;;
73276;SDS011;61501;43.316;5.372;2023-03-01T15:12:32;23.20;;;21.23;;
73276;SDS011;61501;43.316;5.372;2023-03-01T15:15:00;23.98;;;21.83;;
73276;SDS011;61501;43.316;5.372;2023-03-01T15:17:29;23.10;;;20.98;;
73276;SDS011;61501;43.316;5.372;2023-03-01T15:19:57;22.17;;;20.35;;
73276;SDS011;61501;43.316;5.372;2023-03-01T15:22:25;22.98;;;20.95;;
73276;SDS011;61501;43.316;5.372;2023-03-01T15:24:53;23.52;;;21.48;;
73276;SDS011;61501;43.316;5.372;2023-03-01T15:27:20;22.58;;;20.60;;
73276;SDS011;61501;43.316;5.372;2023-03-01T15:29:54;21.58;;;19.85;;
73276;SDS011;61501;43.316;5.372;2023-03-01T15:34:55;21.23;;;19.30;;
73276;SDS011;61501;43.316;5.372;2023-03-01T15:37:36;21.60;;;19.80;;
73276;SDS011;61501;43.316;5.372;2023-03-01T15:40:03;20.95;;;19.13;;
73276;SDS011;61501;43.316;5.372;2023-03-01T15:42:42;20.65;;;18.67;;
73276;SDS011;61501;43.316;5.372;2023-03-01T15:45:19;20.73;;;18.92;;
73276;SDS011;61501;43.316;5.372;2023-03-01T15:47:47;21.67;;;19.80;;
73276;SDS011;61501;43.316;5.372;2023-03-01T15:52:49;21.30;;;19.35;;
73276;SDS011;61501;43.316;5.372;2023-03-01T15:55:20;21.00;;;19.00;;
73276;SDS011;61501;43.316;5.372;2023-03-01T15:57:47;21.00;;;18.95;;
73276;SDS011;61501;43.316;5.372;2023-03-01T16:00:15;20.80;;;19.00;;
73276;SDS011;61501;43.316;5.372;2023-03-01T16:02:42;21.10;;;19.20;;
73276;SDS011;61501;43.316;5.372;2023-03-01T16:07:48;20.33;;;18.52;;
73276;SDS011;61501;43.316;5.372;2023-03-01T16:10:14;21.88;;;19.60;;
73276;SDS011;61501;43.316;5.372;2023-03-01T16:12:40;21.70;;;19.70;;
73276;SDS011;61501;43.316;5.372;2023-03-01T16:15:25;20.23;;;18.27;;
73276;SDS011;61501;43.316;5.372;2023-03-01T16:17:53;20.25;;;18.38;;
73276;SDS011;61501;43.316;5.372;2023-03-01T16:20:19;20.55;;;18.60;;
73276;SDS011;61501;43.316;5.372;2023-03-01T16:22:45;20.33;;;18.40;;
73276;SDS011;61501;43.316;5.372;2023-03-01T16:25:12;21.00;;;18.92;;
73276;SDS011;61501;43.316;5.372;2023-03-01T16:27:43;21.65;;;19.85;;
73276;SDS011;61501;43.316;5.372;2023-03-01T16:30:10;20.48;;;18.67;;
73276;SDS011;61501;43.316;5.372;2023-03-01T16:32:41;20.48;;;18.55;;
73276;SDS011;61501;43.316;5.372;2023-03-01T16:35:09;21.15;;;19.15;;
73276;SDS011;61501;43.316;5.372;2023-03-01T16:37:36;21.40;;;19.50;;
73276;SDS011;61501;43.316;5.372;2023-03-01T16:40:06;21.15;;;19.15;;
73276;SDS011;61501;43.316;5.372;2023-03-01T16:42:40;21.85;;;19.65;;
73276;SDS011;61501;43.316;5.372;2023-03-01T16:45:07;21.58;;;19.40;;
73276;SDS011;61501;43.316;5.372;2023-03-01T16:47:33;22.40;;;20.48;;
73276;SDS011;61501;43.316;5.372;2023-03-01T16:49:59;21.70;;;19.80;;
73276;SDS011;61501;43.316;5.372;2023-03-01T16:52:24;21.35;;;19.55;;
73276;SDS011;61501;43.316;5.372;2023-03-01T16:54:50;20.35;;;18.67;;
73276;SDS011;61501;43.316;5.372;2023-03-01T16:57:16;21.95;;;19.70;;
73276;SDS011;61501;43.316;5.372;2023-03-01T16:59:42;19.95;;;18.25;;
73276;SDS011;61501;43.316;5.372;2023-03-01T17:02:11;20.38;;;18.42;;
73276;SDS011;61501;43.316;5.372;2023-03-01T17:04:41;20.67;;;18.70;;
73276;SDS011;61501;43.316;5.372;2023-03-01T17:07:07;21.63;;;19.52;;
73276;SDS011;61501;43.316;5.372;2023-03-01T17:09:36;20.65;;;18.58;;